createdAt,value
2018-08-09T00:00:58.864Z,5.20
2018-08-09T00:03:27.261Z,4.40
2018-08-09T00:05:55.647Z,4.67
2018-08-09T00:08:24.092Z,4.50
2018-08-09T00:10:52.684Z,4.50
2018-08-09T00:13:21.059Z,5.57
2018-08-09T00:15:49.523Z,5.20
2018-08-09T00:18:17.941Z,4.47
2018-08-09T00:20:46.566Z,4.60
2018-08-09T00:23:14.957Z,5.20
2018-08-09T00:25:43.346Z,5.60
2018-08-09T00:28:11.997Z,5.90
2018-08-09T00:30:40.394Z,5.53
2018-08-09T00:33:08.802Z,5.20
2018-08-09T00:35:37.201Z,6.10
2018-08-09T00:38:05.629Z,5.20
2018-08-09T00:40:34.048Z,5.10
2018-08-09T00:43:02.673Z,5.17
2018-08-09T00:45:31.075Z,4.87
2018-08-09T00:47:59.520Z,5.00
2018-08-09T00:50:27.928Z,5.20
2018-08-09T00:52:56.589Z,4.60
2018-08-09T00:55:25.311Z,4.80
2018-08-09T00:57:53.685Z,4.60
2018-08-09T01:00:22.094Z,5.13
2018-08-09T01:02:50.488Z,5.83
2018-08-09T01:05:18.888Z,4.90
2018-08-09T01:07:47.300Z,5.67
2018-08-09T01:10:15.712Z,4.73
2018-08-09T01:12:44.144Z,5.07
2018-08-09T01:15:12.774Z,4.63
2018-08-09T01:17:41.216Z,4.10
2018-08-09T01:20:09.648Z,4.50
2018-08-09T01:22:38.240Z,5.37
2018-08-09T01:25:06.714Z,5.20
2018-08-09T01:27:35.103Z,5.53
2018-08-09T01:30:03.582Z,5.23
2018-08-09T01:32:31.965Z,5.40
2018-08-09T01:35:00.546Z,5.10
2018-08-09T01:37:28.939Z,5.63
2018-08-09T01:39:57.331Z,5.57
2018-08-09T01:42:37.091Z,5.80
2018-08-09T01:45:05.495Z,5.20
2018-08-09T01:47:33.992Z,5.80
2018-08-09T01:50:02.568Z,6.30
2018-08-09T01:52:31.111Z,5.03
2018-08-09T01:54:59.488Z,6.40
2018-08-09T01:57:27.880Z,5.70
2018-08-09T01:59:56.388Z,6.20
2018-08-09T02:02:24.789Z,5.83
2018-08-09T02:04:53.269Z,6.07
2018-08-09T02:07:21.596Z,6.60
2018-08-09T02:09:49.974Z,5.33
2018-08-09T02:12:18.385Z,5.93
2018-08-09T02:14:46.776Z,6.00
2018-08-09T02:17:15.360Z,5.93
2018-08-09T02:19:43.727Z,6.20
2018-08-09T02:22:12.113Z,5.30
2018-08-09T02:24:40.553Z,6.03
2018-08-09T02:27:08.962Z,6.60
2018-08-09T02:29:37.359Z,5.33
2018-08-09T02:32:05.744Z,6.20
2018-08-09T02:34:34.151Z,5.50
2018-08-09T02:37:02.532Z,5.57
2018-08-09T02:39:30.920Z,5.33
2018-08-09T02:41:59.346Z,5.27
2018-08-09T02:44:27.719Z,5.23
2018-08-09T02:46:56.122Z,5.80
2018-08-09T02:49:24.721Z,5.80
2018-08-09T02:51:53.104Z,5.63
2018-08-09T02:54:21.650Z,5.07
2018-08-09T02:56:50.068Z,5.73
2018-08-09T02:59:18.463Z,5.43
2018-08-09T03:01:46.976Z,5.87
2018-08-09T03:04:15.361Z,5.60
2018-08-09T03:06:43.775Z,6.30
2018-08-09T03:09:13.766Z,5.67
2018-08-09T03:11:43.216Z,5.70
2018-08-09T03:14:11.717Z,6.63
2018-08-09T03:16:40.316Z,5.57
2018-08-09T03:19:08.744Z,6.00
2018-08-09T03:21:37.148Z,5.57
2018-08-09T03:24:05.635Z,5.40
2018-08-09T03:26:34.068Z,5.60
2018-08-09T03:29:02.484Z,5.40
2018-08-09T03:31:30.867Z,4.80
2018-08-09T03:33:59.264Z,4.97
2018-08-09T03:36:27.856Z,4.97
2018-08-09T03:38:56.268Z,5.10
2018-08-09T03:41:24.664Z,5.20
2018-08-09T03:43:53.090Z,5.17
2018-08-09T03:46:21.489Z,5.67
2018-08-09T03:48:50.155Z,5.30
2018-08-09T03:51:19.089Z,5.30
2018-08-09T03:53:47.475Z,4.90
2018-08-09T03:56:15.877Z,4.80
2018-08-09T03:58:44.261Z,5.57
2018-08-09T04:01:12.672Z,5.43
2018-08-09T04:03:41.100Z,6.07
2018-08-09T04:06:09.771Z,5.17
2018-08-09T04:08:38.512Z,5.50
2018-08-09T04:11:06.917Z,6.20
2018-08-09T04:13:35.576Z,6.40
2018-08-09T04:16:04.014Z,6.90
2018-08-09T04:18:32.415Z,6.13
2018-08-09T04:21:00.836Z,6.07
2018-08-09T04:23:29.246Z,6.10
2018-08-09T04:25:57.640Z,7.90
2018-08-09T04:28:26.017Z,6.23
2018-08-09T04:30:54.624Z,5.83
2018-08-09T04:33:23.003Z,5.87
2018-08-09T04:35:51.382Z,5.63
2018-08-09T04:38:19.902Z,4.93
2018-08-09T04:40:48.324Z,6.20
2018-08-09T04:43:16.736Z,5.60
2018-08-09T04:45:45.387Z,6.07
2018-08-09T04:48:13.980Z,6.37
2018-08-09T04:50:42.384Z,6.60
2018-08-09T04:53:11.008Z,7.57
2018-08-09T04:55:39.396Z,7.00
2018-08-09T04:58:07.832Z,7.40
2018-08-09T05:00:36.702Z,7.30
2018-08-09T05:03:05.130Z,8.23
2018-08-09T05:05:33.520Z,8.40
2018-08-09T05:08:01.957Z,7.77
2018-08-09T05:10:30.339Z,7.13
2018-08-09T05:12:58.900Z,8.07
2018-08-09T05:15:27.281Z,8.17
2018-08-09T05:17:55.687Z,7.90
2018-08-09T05:20:24.094Z,8.23
2018-08-09T05:22:52.482Z,7.50
2018-08-09T05:25:21.284Z,6.93
2018-08-09T05:27:49.659Z,7.40
2018-08-09T05:30:18.107Z,8.43
2018-08-09T05:32:46.560Z,7.67
2018-08-09T05:35:14.974Z,7.83
2018-08-09T05:37:43.472Z,7.90
2018-08-09T05:40:12.239Z,7.80
2018-08-09T05:42:40.756Z,8.37
2018-08-09T05:45:09.179Z,7.60
2018-08-09T05:47:37.607Z,7.43
2018-08-09T05:50:06.476Z,7.10
2018-08-09T05:52:34.880Z,7.40
2018-08-09T05:55:03.420Z,7.90
2018-08-09T05:57:31.852Z,7.87
2018-08-09T06:00:00.418Z,7.67
2018-08-09T06:02:28.858Z,7.67
2018-08-09T06:04:57.270Z,8.30
2018-08-09T06:07:25.757Z,7.73
2018-08-09T06:09:54.164Z,8.03
2018-08-09T06:12:22.589Z,9.40
2018-08-09T06:14:51.296Z,7.97
2018-08-09T06:17:19.699Z,8.03
2018-08-09T06:19:48.119Z,8.27
2018-08-09T06:22:16.593Z,7.23
2018-08-09T06:24:45.011Z,7.03
2018-08-09T06:27:13.440Z,7.33
2018-08-09T06:29:41.871Z,7.63
2018-08-09T06:32:10.304Z,7.27
2018-08-09T06:34:38.702Z,7.10
2018-08-09T06:37:07.160Z,7.37
2018-08-09T06:39:35.592Z,8.30
2018-08-09T06:42:04.102Z,8.33
2018-08-09T06:44:32.761Z,8.40
2018-08-09T06:47:01.221Z,8.40
2018-08-09T06:49:29.678Z,7.30
2018-08-09T06:51:58.104Z,7.17
2018-08-09T06:54:26.504Z,7.70
2018-08-09T06:56:55.171Z,7.90
2018-08-09T06:59:23.640Z,7.80
2018-08-09T07:01:52.035Z,7.30
2018-08-09T07:04:20.557Z,6.87
2018-08-09T07:06:49.118Z,7.67
2018-08-09T07:09:17.608Z,6.70
2018-08-09T07:11:46.128Z,7.07
2018-08-09T07:14:14.536Z,7.17
2018-08-09T07:16:42.962Z,6.30
2018-08-09T07:19:11.394Z,5.83
2018-08-09T07:21:39.833Z,7.20
2018-08-09T07:24:08.328Z,6.30
2018-08-09T07:26:37.041Z,6.03
2018-08-09T07:29:05.417Z,6.57
2018-08-09T07:31:33.816Z,5.50
2018-08-09T07:34:02.241Z,6.20
2018-08-09T07:36:30.696Z,5.90
2018-08-09T07:38:59.220Z,6.57
2018-08-09T07:41:27.626Z,6.03
2018-08-09T07:43:56.009Z,6.40
2018-08-09T07:46:24.472Z,5.60
2018-08-09T07:48:53.337Z,5.30
2018-08-09T07:51:21.716Z,5.63
2018-08-09T07:53:50.147Z,6.40
2018-08-09T07:56:18.551Z,6.53
2018-08-09T07:58:46.979Z,6.00
2018-08-09T08:01:15.364Z,6.80
2018-08-09T08:03:43.789Z,5.97
2018-08-09T08:06:12.413Z,6.73
2018-08-09T08:08:40.768Z,5.13
2018-08-09T08:11:09.241Z,5.70
2018-08-09T08:13:37.752Z,5.40
2018-08-09T08:16:06.703Z,6.13
2018-08-09T08:18:35.151Z,6.90
2018-08-09T08:21:03.628Z,7.00
2018-08-09T08:23:32.033Z,5.67
2018-08-09T08:26:00.542Z,6.20
2018-08-09T08:28:28.924Z,6.80
2018-08-09T08:30:57.377Z,7.40
2018-08-09T08:33:25.804Z,7.23
2018-08-09T08:35:54.336Z,7.97
2018-08-09T08:38:22.816Z,7.43
2018-08-09T08:40:51.268Z,5.87
2018-08-09T08:43:19.671Z,7.40
2018-08-09T08:45:48.144Z,6.30
2018-08-09T08:48:16.775Z,7.50
2018-08-09T08:50:45.154Z,7.03
2018-08-09T08:53:13.621Z,7.37
2018-08-09T08:55:42.065Z,6.70
2018-08-09T08:58:10.542Z,6.83
2018-08-09T09:00:39.184Z,6.23
2018-08-09T09:03:07.906Z,6.27
2018-08-09T09:05:36.321Z,5.80
2018-08-09T09:08:05.274Z,5.10
2018-08-09T09:10:33.705Z,6.77
2018-08-09T09:13:02.126Z,6.00
2018-08-09T09:15:30.809Z,6.17
2018-08-09T09:17:59.247Z,6.37
2018-08-09T09:20:27.668Z,6.37
2018-08-09T09:22:56.172Z,5.40
2018-08-09T09:25:24.816Z,5.50
2018-08-09T09:27:53.289Z,6.30
2018-08-09T09:30:21.668Z,7.23
2018-08-09T09:32:51.225Z,11.37
2018-08-09T09:35:19.834Z,11.03
2018-08-09T09:37:48.424Z,13.43
2018-08-09T09:40:16.929Z,14.80
2018-08-09T09:42:45.588Z,15.80
2018-08-09T09:45:14.156Z,13.30
2018-08-09T09:47:42.581Z,14.77
2018-08-09T09:50:11.940Z,13.23
2018-08-09T09:52:40.709Z,11.77
2018-08-09T09:55:09.432Z,13.67
2018-08-09T09:57:38.300Z,11.27
2018-08-09T10:00:12.211Z,11.27
2018-08-09T10:02:40.687Z,9.57
2018-08-09T10:05:09.112Z,10.47
2018-08-09T10:07:37.593Z,9.67
2018-08-09T10:10:06.078Z,8.93
2018-08-09T10:12:34.814Z,9.70
2018-08-09T10:15:03.265Z,8.90
2018-08-09T10:17:31.677Z,9.47
2018-08-09T10:20:00.388Z,9.00
2018-08-09T10:22:28.806Z,9.73
2018-08-09T10:24:57.412Z,9.63
2018-08-09T10:27:26.076Z,10.03
2018-08-09T10:29:54.569Z,10.23
2018-08-09T10:32:23.168Z,10.53
2018-08-09T10:34:51.740Z,10.97
2018-08-09T10:37:20.313Z,10.90
2018-08-09T10:39:48.888Z,10.30
2018-08-09T10:42:17.337Z,12.10
2018-08-09T10:44:45.997Z,12.10
2018-08-09T10:47:14.717Z,11.57
2018-08-09T10:49:43.160Z,12.30
2018-08-09T10:52:11.600Z,10.00
2018-08-09T10:54:40.370Z,11.40
2018-08-09T10:57:08.864Z,10.97
2018-08-09T10:59:37.783Z,10.43
2018-08-09T11:02:06.265Z,11.47
2018-08-09T11:04:34.693Z,11.80
2018-08-09T11:07:03.151Z,11.03
2018-08-09T11:09:31.569Z,10.30
2018-08-09T11:11:59.954Z,9.90
2018-08-09T11:14:28.526Z,10.50
2018-08-09T11:16:56.962Z,10.00
2018-08-09T11:19:25.388Z,11.90
2018-08-09T11:21:54.067Z,10.47
2018-08-09T11:24:22.480Z,8.77
2018-08-09T11:26:50.971Z,9.60
2018-08-09T11:29:20.380Z,9.90
2018-08-09T11:31:48.957Z,9.50
2018-08-09T11:34:17.377Z,9.87
2018-08-09T11:36:45.833Z,9.30
2018-08-09T11:39:14.224Z,10.30
2018-08-09T11:41:42.849Z,9.90
2018-08-09T11:44:11.788Z,9.00
2018-08-09T11:46:40.175Z,10.20
2018-08-09T11:49:08.886Z,10.17
2018-08-09T11:51:37.268Z,9.63
2018-08-09T11:54:06.480Z,12.03
2018-08-09T11:56:34.936Z,11.00
2018-08-09T11:59:03.338Z,11.70
2018-08-09T12:01:32.019Z,11.73
2018-08-09T12:04:00.450Z,13.13
2018-08-09T12:06:28.844Z,13.20
2018-08-09T12:08:57.720Z,12.53
2018-08-09T12:11:26.225Z,9.67
2018-08-09T12:13:54.616Z,9.63
2018-08-09T12:16:23.288Z,10.87
2018-08-09T12:18:51.732Z,10.70
2018-08-09T12:21:20.264Z,12.00
2018-08-09T12:23:48.697Z,10.97
2018-08-09T12:26:17.124Z,11.37
2018-08-09T12:28:45.753Z,10.97
2018-08-09T12:31:14.178Z,13.57
2018-08-09T12:33:42.640Z,12.80
2018-08-09T12:36:11.385Z,11.90
2018-08-09T12:38:39.892Z,11.50
2018-08-09T12:41:08.496Z,11.03
2018-08-09T12:43:37.330Z,11.13
2018-08-09T12:46:06.401Z,12.90
2018-08-09T12:48:35.009Z,11.37
2018-08-09T12:51:03.549Z,12.47
2018-08-09T12:53:32.132Z,16.47
2018-08-09T12:56:00.741Z,18.90
2018-08-09T12:58:29.144Z,19.60
2018-08-09T13:00:57.783Z,20.77
2018-08-09T13:03:26.460Z,11.90
2018-08-09T13:05:54.905Z,16.10
2018-08-09T13:08:23.384Z,16.53
2018-08-09T13:10:51.909Z,15.30
2018-08-09T13:13:20.333Z,12.30
2018-08-09T13:15:48.777Z,12.00
2018-08-09T13:18:17.323Z,12.70
2018-08-09T13:20:45.773Z,15.07
2018-08-09T13:23:14.244Z,22.37
2018-08-09T13:25:42.686Z,26.23
2018-08-09T13:28:11.128Z,28.60
2018-08-09T13:30:39.700Z,21.03
2018-08-09T13:33:08.548Z,24.60
2018-08-09T13:35:36.998Z,25.70
2018-08-09T13:38:05.577Z,25.90
2018-08-09T13:40:33.949Z,24.10
2018-08-09T13:43:02.511Z,21.47
2018-08-09T13:45:31.037Z,25.37
2018-08-09T13:47:59.479Z,25.37
2018-08-09T13:50:27.928Z,24.00
2018-08-09T13:52:56.444Z,26.63
2018-08-09T13:55:24.890Z,26.80
2018-08-09T13:57:53.316Z,25.37
2018-08-09T14:00:21.744Z,28.60
2018-08-09T14:02:50.220Z,25.93
2018-08-09T14:05:18.636Z,24.67
2018-08-09T14:07:47.312Z,22.73
2018-08-09T14:10:15.936Z,23.43
2018-08-09T14:12:44.386Z,20.40
2018-08-09T14:15:14.276Z,22.47
2018-08-09T14:17:42.768Z,18.80
2018-08-09T14:20:13.613Z,20.90
2018-08-09T14:22:42.201Z,19.37
2018-08-09T14:25:10.809Z,19.47
2018-08-09T14:27:39.233Z,13.43
2018-08-09T14:30:09.277Z,12.07
2018-08-09T14:32:37.932Z,9.80
2018-08-09T14:35:08.844Z,11.77
2018-08-09T14:37:37.343Z,10.90
2018-08-09T14:40:06.863Z,10.00
2018-08-09T14:42:35.364Z,11.40
2018-08-09T14:45:05.089Z,11.83
2018-08-09T14:47:33.510Z,14.23
2018-08-09T14:50:01.952Z,12.40
2018-08-09T14:52:30.412Z,15.20
2018-08-09T14:54:58.836Z,14.93
2018-08-09T14:57:27.359Z,15.47
2018-08-09T14:59:56.121Z,14.63
2018-08-09T15:02:24.559Z,16.77
2018-08-09T15:04:53.009Z,15.37
2018-08-09T15:07:21.495Z,15.50
2018-08-09T15:09:49.979Z,14.53
2018-08-09T15:12:18.457Z,15.50
2018-08-09T15:14:46.937Z,14.60
2018-08-09T15:17:15.401Z,15.30
2018-08-09T15:19:43.815Z,16.40
2018-08-09T15:22:12.241Z,14.00
2018-08-09T15:24:40.713Z,15.73
2018-08-09T15:27:09.189Z,15.33
2018-08-09T15:29:37.657Z,14.90
2018-08-09T15:32:06.145Z,14.63
2018-08-09T15:34:34.536Z,14.40
2018-08-09T15:37:03.239Z,14.80
2018-08-09T15:39:31.653Z,12.10
2018-08-09T15:42:00.094Z,11.60
2018-08-09T15:44:28.550Z,9.93
2018-08-09T15:46:57.021Z,12.30
2018-08-09T15:49:25.488Z,13.10
2018-08-09T15:51:54.088Z,10.50
2018-08-09T15:54:22.550Z,10.00
2018-08-09T15:56:51.066Z,9.27
2018-08-09T15:59:19.478Z,6.53
2018-08-09T16:01:48.068Z,3.77
2018-08-09T16:04:16.520Z,3.57
2018-08-09T16:06:44.935Z,3.93
2018-08-09T16:09:16.056Z,3.10
2018-08-09T16:11:44.620Z,3.47
2018-08-09T16:14:13.228Z,3.70
2018-08-09T16:16:41.674Z,3.53
2018-08-09T16:19:10.859Z,3.27
2018-08-09T16:21:39.417Z,3.40
2018-08-09T16:24:07.977Z,3.33
2018-08-09T16:26:36.477Z,3.10
2018-08-09T16:29:05.967Z,3.53
2018-08-09T16:31:34.466Z,3.20
2018-08-09T16:34:03.041Z,4.67
2018-08-09T16:36:31.534Z,3.80
2018-08-09T16:39:00.117Z,3.17
2018-08-09T16:41:28.574Z,3.50
2018-08-09T16:43:57.036Z,2.87
2018-08-09T16:46:25.671Z,3.07
2018-08-09T16:48:54.609Z,3.00
2018-08-09T16:51:23.084Z,2.80
2018-08-09T16:53:51.524Z,2.80
2018-08-09T16:56:20.376Z,2.47
2018-08-09T16:58:49.203Z,2.70
2018-08-09T17:01:17.840Z,3.20
2018-08-09T17:03:46.321Z,2.87
2018-08-09T17:06:14.736Z,3.27
2018-08-09T17:08:43.256Z,3.10
2018-08-09T17:11:11.685Z,3.03
2018-08-09T17:13:40.265Z,3.20
2018-08-09T17:16:08.803Z,3.07
2018-08-09T17:18:37.422Z,2.50
2018-08-09T17:21:05.976Z,2.40
2018-08-09T17:23:34.453Z,3.87
2018-08-09T17:26:03.080Z,2.90
2018-08-09T17:28:31.510Z,2.10
2018-08-09T17:31:00.079Z,2.60
2018-08-09T17:33:28.526Z,1.77
2018-08-09T17:35:56.946Z,2.40
2018-08-09T17:38:25.396Z,1.73
2018-08-09T17:40:53.911Z,2.30
2018-08-09T17:43:22.411Z,2.37
2018-08-09T17:45:50.852Z,2.23
2018-08-09T17:48:19.342Z,3.60
2018-08-09T17:50:47.764Z,3.57
2018-08-09T17:53:16.558Z,3.40
2018-08-09T17:55:45.159Z,3.20
2018-08-09T17:58:13.604Z,2.93
2018-08-09T18:00:42.132Z,3.80
2018-08-09T18:03:10.859Z,3.90
2018-08-09T18:05:39.325Z,4.77
2018-08-09T18:08:08.118Z,3.87
2018-08-09T18:10:36.949Z,4.00
2018-08-09T18:13:05.579Z,5.00
2018-08-09T18:15:34.125Z,5.00
2018-08-09T18:18:03.431Z,5.23
2018-08-09T18:20:33.794Z,5.50
2018-08-09T18:23:02.279Z,5.67
2018-08-09T18:25:30.708Z,5.73
2018-08-09T18:27:59.347Z,5.10
2018-08-09T18:30:27.832Z,5.80
2018-08-09T18:32:56.667Z,5.20
2018-08-09T18:35:25.125Z,5.50
2018-08-09T18:37:53.610Z,5.50
2018-08-09T18:40:24.500Z,5.60
2018-08-09T18:42:53.058Z,6.00
2018-08-09T18:45:22.325Z,3.90
2018-08-09T18:47:50.836Z,5.30
2018-08-09T18:50:25.336Z,4.80
2018-08-09T18:52:53.887Z,3.80
2018-08-09T18:55:22.361Z,3.63
2018-08-09T18:57:51.162Z,3.17
2018-08-09T19:00:21.762Z,3.43
2018-08-09T19:02:51.080Z,3.00
2018-08-09T19:05:19.620Z,2.73
2018-08-09T19:07:48.225Z,2.63
2018-08-09T19:10:22.835Z,2.63
2018-08-09T19:12:51.736Z,2.57
2018-08-09T19:15:20.372Z,2.43
2018-08-09T19:17:49.028Z,2.63
2018-08-09T19:20:21.127Z,2.50
2018-08-09T19:22:50.077Z,3.10
2018-08-09T19:25:18.913Z,2.20
2018-08-09T19:27:47.405Z,2.97
2018-08-09T19:30:17.466Z,2.70
2018-08-09T19:32:45.985Z,2.57
2018-08-09T19:35:15.818Z,2.90
2018-08-09T19:37:44.405Z,3.13
2018-08-09T19:40:14.665Z,2.93
2018-08-09T19:42:43.566Z,3.10
2018-08-09T19:45:17.513Z,2.93
2018-08-09T19:47:46.250Z,3.10
2018-08-09T19:50:17.724Z,3.10
2018-08-09T19:52:46.451Z,2.97
2018-08-09T19:55:16.472Z,2.80
2018-08-09T19:57:46.340Z,2.80
2018-08-09T20:00:16.826Z,2.30
2018-08-09T20:02:46.633Z,2.07
2018-08-09T20:05:15.341Z,2.53
2018-08-09T20:07:44.176Z,1.70
2018-08-09T20:10:13.636Z,2.40
2018-08-09T20:12:43.208Z,2.50
2018-08-09T20:15:14.678Z,1.90
2018-08-09T20:17:43.241Z,2.10
2018-08-09T20:20:14.418Z,2.37
2018-08-09T20:22:42.907Z,2.30
2018-08-09T20:25:12.307Z,2.90
2018-08-09T20:27:41.239Z,2.00
2018-08-09T20:30:11.349Z,2.50
2018-08-09T20:32:40.819Z,2.60
2018-08-09T20:35:14.940Z,2.60
2018-08-09T20:37:44.500Z,2.30
2018-08-09T20:40:13.512Z,2.73
2018-08-09T20:42:43.189Z,2.43
2018-08-09T20:45:13.441Z,2.73
2018-08-09T20:47:42.043Z,2.60
2018-08-09T20:50:14.180Z,2.10
2018-08-09T20:52:43.774Z,1.60
2018-08-09T20:55:12.222Z,1.50
2018-08-09T20:57:41.773Z,1.37
2018-08-09T21:00:13.876Z,1.50
2018-08-09T21:02:43.050Z,1.60
2018-08-09T21:05:20.976Z,1.53
2018-08-09T21:07:50.041Z,1.43
2018-08-09T21:10:18.508Z,1.40
2018-08-09T21:12:47.366Z,1.57
2018-08-09T21:15:16.435Z,1.53
2018-08-09T21:17:44.956Z,1.37
2018-08-09T21:20:14.380Z,1.67
2018-08-09T21:22:43.813Z,1.40
2018-08-09T21:25:12.789Z,1.30
2018-08-09T21:27:41.354Z,1.40
2018-08-09T21:30:12.375Z,1.63
2018-08-09T21:32:40.848Z,1.50
2018-08-09T21:35:10.284Z,1.53
2018-08-09T21:37:39.907Z,1.57
2018-08-09T21:40:09.793Z,1.40
2018-08-09T21:42:38.420Z,1.33
2018-08-09T21:45:12.893Z,1.20
2018-08-09T21:47:42.037Z,1.30
2018-08-09T21:50:13.155Z,2.00
2018-08-09T21:52:42.363Z,1.40
2018-08-09T21:55:11.825Z,1.60
2018-08-09T21:57:40.824Z,1.80
2018-08-09T22:00:17.877Z,1.70
2018-08-09T22:02:46.617Z,1.50
2018-08-09T22:05:20.701Z,1.30
2018-08-09T22:07:54.724Z,1.80
2018-08-09T22:10:28.795Z,2.37
2018-08-09T22:13:02.545Z,1.63
2018-08-09T22:15:36.642Z,1.30
2018-08-09T22:18:10.868Z,1.67
2018-08-09T22:20:44.997Z,1.30
2018-08-09T22:23:13.581Z,1.37
2018-08-09T22:25:41.984Z,1.40
2018-08-09T22:28:10.544Z,1.10
2018-08-09T22:30:39.002Z,1.20
2018-08-09T22:33:07.427Z,1.10
2018-08-09T22:35:35.868Z,1.10
2018-08-09T22:38:04.535Z,1.07
2018-08-09T22:40:33.245Z,1.20
2018-08-09T22:43:01.632Z,1.27
2018-08-09T22:45:30.449Z,1.63
2018-08-09T22:47:58.840Z,1.60
2018-08-09T22:50:27.307Z,1.50
2018-08-09T22:52:55.900Z,1.20
2018-08-09T22:55:24.297Z,1.47
2018-08-09T22:57:52.761Z,1.43
2018-08-09T23:00:23.849Z,1.53
2018-08-09T23:02:52.700Z,1.77
2018-08-09T23:05:21.482Z,1.83
2018-08-09T23:07:50.372Z,1.67
2018-08-09T23:10:19.121Z,1.60
2018-08-09T23:12:47.682Z,1.60
2018-08-09T23:15:16.148Z,2.00
2018-08-09T23:17:44.734Z,1.77
2018-08-09T23:20:13.193Z,2.00
2018-08-09T23:22:41.665Z,1.80
2018-08-09T23:25:12.821Z,1.80
2018-08-09T23:27:41.910Z,2.37
2018-08-09T23:30:11.429Z,2.47
2018-08-09T23:32:39.904Z,1.90
2018-08-09T23:35:10.232Z,1.90
2018-08-09T23:37:38.648Z,1.30
2018-08-09T23:40:09.356Z,2.03
2018-08-09T23:42:38.420Z,2.30
2018-08-09T23:45:08.909Z,1.77
2018-08-09T23:47:38.962Z,1.83
2018-08-09T23:50:09.434Z,1.50
2018-08-09T23:52:38.895Z,1.90
2018-08-09T23:55:10.190Z,2.00
2018-08-09T23:57:39.035Z,1.80
